createdAt,value
2022-11-08T00:01:45.715Z,100588.48
2022-11-08T00:04:16.546Z,100590.31
2022-11-08T00:07:04.643Z,100588.61
2022-11-08T00:09:51.796Z,100586.93
2022-11-08T00:12:39.852Z,100591.30
2022-11-08T00:15:10.632Z,100593.06
2022-11-08T00:17:39.110Z,100595.69
2022-11-08T00:20:11.517Z,100591.38
2022-11-08T00:22:40.414Z,100594.00
2022-11-08T00:25:11.353Z,100594.89
2022-11-08T00:27:42.505Z,100602.69
2022-11-08T00:30:16.605Z,100600.98
2022-11-08T00:32:45.053Z,100598.41
2022-11-08T00:35:13.841Z,100593.25
2022-11-08T00:37:44.807Z,100591.56
2022-11-08T00:40:14.032Z,100594.16
2022-11-08T00:42:42.638Z,100591.59
2022-11-08T00:45:13.956Z,100588.98
2022-11-08T00:47:44.653Z,100588.16
2022-11-08T00:50:14.367Z,100587.30
2022-11-08T00:52:45.345Z,100589.01
2022-11-08T00:55:13.856Z,100582.99
2022-11-08T00:57:58.479Z,100584.72
2022-11-08T01:00:28.574Z,100586.45
2022-11-08T01:03:11.798Z,100588.22
2022-11-08T01:05:40.421Z,100583.02
2022-11-08T01:08:13.314Z,100593.42
2022-11-08T01:10:42.835Z,100587.38
2022-11-08T01:13:14.073Z,100584.80
2022-11-08T01:15:46.550Z,100588.27
2022-11-08T01:18:20.020Z,100588.27
2022-11-08T01:20:50.900Z,100581.36
2022-11-08T01:23:19.780Z,100580.50
2022-11-08T01:25:51.727Z,100571.00
2022-11-08T01:28:21.199Z,100575.33
2022-11-08T01:30:50.770Z,100575.31
2022-11-08T01:33:19.472Z,100574.45
2022-11-08T01:35:48.045Z,100575.34
2022-11-08T01:38:19.495Z,100571.00
2022-11-08T01:40:53.571Z,100565.81
2022-11-08T01:43:36.462Z,100565.81
2022-11-08T01:46:41.128Z,100567.55
2022-11-08T01:49:36.133Z,100569.30
2022-11-08T01:52:20.714Z,100567.55
2022-11-08T01:54:56.785Z,100571.02
2022-11-08T01:57:28.574Z,100566.67
2022-11-08T02:00:01.316Z,100575.31
2022-11-08T02:02:38.800Z,100573.61
2022-11-08T02:05:24.296Z,100572.72
2022-11-08T02:07:59.208Z,100574.45
2022-11-08T02:10:33.405Z,100571.86
2022-11-08T02:13:05.217Z,100575.34
2022-11-08T02:15:35.284Z,100567.53
2022-11-08T02:18:04.174Z,100568.39
2022-11-08T02:20:33.791Z,100576.19
2022-11-08T02:23:11.782Z,100568.41
2022-11-08T02:25:42.709Z,100569.27
2022-11-08T02:28:12.616Z,100570.11
2022-11-08T02:30:41.677Z,100566.64
2022-11-08T02:33:20.577Z,100567.52
2022-11-08T02:35:51.686Z,100561.45
2022-11-08T02:38:21.045Z,100563.19
2022-11-08T02:40:55.268Z,100558.87
2022-11-08T02:43:26.145Z,100561.49
2022-11-08T02:45:59.158Z,100563.20
2022-11-08T02:48:31.170Z,100571.02
2022-11-08T02:51:00.805Z,100562.36
2022-11-08T02:53:34.450Z,100564.95
2022-11-08T02:56:03.066Z,100567.56
2022-11-08T02:58:31.597Z,100571.89
2022-11-08T03:01:00.165Z,100570.18
2022-11-08T03:03:29.481Z,100566.69
2022-11-08T03:05:58.088Z,100571.91
2022-11-08T03:08:29.495Z,100563.27
2022-11-08T03:10:59.955Z,100566.73
2022-11-08T03:13:30.180Z,100571.92
2022-11-08T03:16:01.263Z,100571.06
2022-11-08T03:18:30.742Z,100573.66
2022-11-08T03:21:00.522Z,100577.98
2022-11-08T03:23:31.161Z,100577.13
2022-11-08T03:26:02.419Z,100579.73
2022-11-08T03:28:31.092Z,100581.47
2022-11-08T03:30:59.682Z,100576.27
2022-11-08T03:33:28.881Z,100576.27
2022-11-08T03:35:57.718Z,100586.65
2022-11-08T03:38:26.384Z,100584.05
2022-11-08T03:40:57.853Z,100575.38
2022-11-08T03:43:27.465Z,100571.08
2022-11-08T03:45:56.030Z,100584.05
2022-11-08T03:48:24.513Z,100581.44
2022-11-08T03:50:53.165Z,100584.03
2022-11-08T03:53:21.754Z,100585.78
2022-11-08T03:55:52.507Z,100587.49
2022-11-08T03:58:21.276Z,100584.05
2022-11-08T04:00:51.045Z,100591.80
2022-11-08T04:03:19.780Z,100601.34
2022-11-08T04:05:48.226Z,100589.21
2022-11-08T04:08:18.370Z,100588.36
2022-11-08T04:10:47.470Z,100579.72
2022-11-08T04:13:34.835Z,100590.09
2022-11-08T04:16:03.893Z,100580.57
2022-11-08T04:18:52.241Z,100581.42
2022-11-08T04:21:24.271Z,100577.97
2022-11-08T04:23:56.076Z,100577.09
2022-11-08T04:26:27.156Z,100577.09
2022-11-08T04:28:55.720Z,100571.02
2022-11-08T04:31:26.172Z,100577.96
2022-11-08T04:33:55.828Z,100581.42
2022-11-08T04:36:24.307Z,100584.00
2022-11-08T04:38:54.068Z,100571.02
2022-11-08T04:41:24.491Z,100567.55
2022-11-08T04:43:56.110Z,100577.02
2022-11-08T04:46:30.999Z,100574.41
2022-11-08T04:49:03.965Z,100580.47
2022-11-08T04:51:33.543Z,100573.53
2022-11-08T04:54:05.871Z,100583.03
2022-11-08T04:56:34.774Z,100589.05
2022-11-08T04:59:07.271Z,100582.11
2022-11-08T05:01:41.069Z,100585.53
2022-11-08T05:04:10.184Z,100582.06
2022-11-08T05:06:39.071Z,100585.49
2022-11-08T05:09:08.027Z,100584.61
2022-11-08T05:11:38.952Z,100591.52
2022-11-08T05:14:07.550Z,100582.86
2022-11-08T05:16:39.746Z,100583.69
2022-11-08T05:19:13.017Z,100587.98
2022-11-08T05:22:02.355Z,100582.78
2022-11-08T05:24:31.537Z,100590.53
2022-11-08T05:27:01.265Z,100587.91
2022-11-08T05:29:34.844Z,100603.44
2022-11-08T05:32:06.589Z,100599.95
2022-11-08T05:34:40.792Z,100597.33
2022-11-08T05:37:08.890Z,100599.04
2022-11-08T05:39:38.180Z,100595.56
2022-11-08T05:42:07.482Z,100599.01
2022-11-08T05:44:36.049Z,100615.41
2022-11-08T05:47:05.472Z,100611.94
2022-11-08T05:49:34.065Z,100615.38
2022-11-08T05:52:07.336Z,100617.97
2022-11-08T05:54:36.164Z,100621.41
2022-11-08T05:57:05.025Z,100618.82
2022-11-08T05:59:39.010Z,100619.67
2022-11-08T06:02:07.753Z,100612.75
2022-11-08T06:04:36.587Z,100618.78
2022-11-08T06:07:05.677Z,100611.02
2022-11-08T06:09:36.798Z,100613.61
2022-11-08T06:12:07.083Z,100623.12
2022-11-08T06:14:36.644Z,100618.78
2022-11-08T06:17:06.472Z,100623.16
2022-11-08T06:19:35.596Z,100622.27
2022-11-08T06:22:04.362Z,100622.30
2022-11-08T06:24:33.192Z,100619.74
2022-11-08T06:27:02.052Z,100624.11
2022-11-08T06:29:33.479Z,100625.88
2022-11-08T06:32:02.496Z,100622.50
2022-11-08T06:34:31.768Z,100625.15
2022-11-08T06:37:00.543Z,100620.88
2022-11-08T06:39:32.536Z,100620.95
2022-11-08T06:42:01.425Z,100637.45
2022-11-08T06:44:30.031Z,100633.16
2022-11-08T06:46:59.336Z,100628.02
2022-11-08T06:49:31.096Z,100628.91
2022-11-08T06:51:59.573Z,100631.58
2022-11-08T06:54:30.812Z,100628.13
2022-11-08T06:57:01.616Z,100632.50
2022-11-08T06:59:30.193Z,100636.01
2022-11-08T07:01:58.882Z,100635.14
2022-11-08T07:04:27.514Z,100641.25
2022-11-08T07:06:59.125Z,100644.72
2022-11-08T07:09:27.736Z,100643.02
2022-11-08T07:11:56.973Z,100646.52
2022-11-08T07:14:25.525Z,100645.64
2022-11-08T07:16:54.010Z,100644.81
2022-11-08T07:19:22.531Z,100647.40
2022-11-08T07:21:53.154Z,100643.94
2022-11-08T07:24:21.605Z,100643.05
2022-11-08T07:26:52.084Z,100649.11
2022-11-08T07:29:20.848Z,100645.66
2022-11-08T07:31:49.373Z,100649.98
2022-11-08T07:34:18.826Z,100647.39
2022-11-08T07:36:47.328Z,100648.27
2022-11-08T07:39:16.183Z,100650.86
2022-11-08T07:41:44.768Z,100646.53
2022-11-08T07:44:13.395Z,100647.37
2022-11-08T07:46:41.885Z,100649.11
2022-11-08T07:49:10.527Z,100653.44
2022-11-08T07:51:38.949Z,100651.66
2022-11-08T07:54:07.431Z,100649.05
2022-11-08T07:56:35.967Z,100647.30
2022-11-08T07:59:04.788Z,100653.35
2022-11-08T08:01:35.208Z,100648.13
2022-11-08T08:04:04.285Z,100646.30
2022-11-08T08:06:32.911Z,100646.95
2022-11-08T08:09:01.486Z,100642.16
2022-11-08T08:11:33.620Z,100632.34
2022-11-08T08:14:02.544Z,100639.48
2022-11-08T08:16:34.513Z,100634.13
2022-11-08T08:19:03.504Z,100636.48
2022-11-08T08:21:32.092Z,100638.58
2022-11-08T08:24:00.566Z,100632.02
2022-11-08T08:26:29.313Z,100630.17
2022-11-08T08:28:57.797Z,100631.56
2022-11-08T08:31:26.289Z,100632.88
2022-11-08T08:33:54.713Z,100633.36
2022-11-08T08:36:23.239Z,100633.30
2022-11-08T08:38:53.274Z,100623.64
2022-11-08T08:41:21.769Z,100633.21
2022-11-08T08:43:51.660Z,100630.67
2022-11-08T08:46:20.204Z,100627.68
2022-11-08T08:48:49.534Z,100630.09
2022-11-08T08:51:21.148Z,100640.25
2022-11-08T08:53:50.030Z,100636.31
2022-11-08T08:56:19.179Z,100639.36
2022-11-08T09:01:42.444Z,100638.05
2022-11-08T09:04:10.947Z,100636.41
2022-11-08T09:06:39.526Z,100637.39
2022-11-08T09:09:08.012Z,100633.13
2022-11-08T09:11:39.565Z,100637.48
2022-11-08T09:14:08.106Z,100634.05
2022-11-08T09:16:38.924Z,100634.90
2022-11-08T09:19:07.439Z,100633.08
2022-11-08T09:21:35.964Z,100631.26
2022-11-08T09:24:05.006Z,100640.77
2022-11-08T09:26:34.198Z,100635.42
2022-11-08T09:29:02.683Z,100630.86
2022-11-08T09:31:35.828Z,100633.97
2022-11-08T09:34:06.816Z,100634.29
2022-11-08T09:36:35.369Z,100632.56
2022-11-08T09:39:04.091Z,100636.38
2022-11-08T09:41:57.457Z,100631.80
2022-11-08T09:44:55.186Z,100625.72
2022-11-08T09:47:26.776Z,100621.64
2022-11-08T09:50:02.742Z,100622.03
2022-11-08T09:52:34.562Z,100622.77
2022-11-08T09:55:16.540Z,100620.45
2022-11-08T09:57:55.870Z,100619.47
2022-11-08T10:00:24.911Z,100622.82
2022-11-08T10:02:53.803Z,100623.64
2022-11-08T10:05:22.604Z,100622.52
2022-11-08T10:07:58.395Z,100614.48
2022-11-08T10:11:04.459Z,100615.01
2022-11-08T10:13:43.795Z,100605.91
2022-11-08T10:16:27.664Z,100610.91
2022-11-08T10:19:02.188Z,100606.65
2022-11-08T10:21:46.616Z,100607.61
2022-11-08T10:24:23.976Z,100606.00
2022-11-08T10:26:54.969Z,100607.02
2022-11-08T10:29:27.038Z,100600.57
2022-11-08T10:32:02.604Z,100610.72
2022-11-08T10:34:39.550Z,100605.11
2022-11-08T10:37:14.951Z,100599.67
2022-11-08T10:39:54.292Z,100601.83
2022-11-08T10:42:34.512Z,100604.03
2022-11-08T10:45:03.278Z,100602.94
2022-11-08T10:47:33.726Z,100603.29
2022-11-08T10:50:06.392Z,100606.94
2022-11-08T10:52:40.704Z,100593.91
2022-11-08T10:55:22.641Z,100587.97
2022-11-08T10:57:53.981Z,100588.74
2022-11-08T11:00:29.661Z,100588.45
2022-11-08T11:03:00.294Z,100582.00
2022-11-08T11:05:32.829Z,100584.55
2022-11-08T11:08:15.625Z,100592.42
2022-11-08T11:10:46.333Z,100579.98
2022-11-08T11:13:20.401Z,100584.02
2022-11-08T11:15:52.830Z,100583.34
2022-11-08T11:18:33.631Z,100586.45
2022-11-08T11:21:07.227Z,100595.96
2022-11-08T11:23:43.541Z,100583.27
2022-11-08T11:26:34.085Z,100579.37
2022-11-08T11:29:16.580Z,100577.05
2022-11-08T11:31:47.220Z,100584.28
2022-11-08T11:34:40.273Z,100574.02
2022-11-08T11:37:20.430Z,100577.97
2022-11-08T11:39:59.962Z,100578.17
2022-11-08T11:42:49.365Z,100580.16
2022-11-08T11:45:25.051Z,100582.89
2022-11-08T11:47:55.727Z,100577.59
2022-11-08T11:50:32.071Z,100590.80
2022-11-08T11:53:04.346Z,100578.70
2022-11-08T11:56:06.312Z,100572.66
2022-11-08T11:58:57.972Z,100578.08
2022-11-08T12:01:50.887Z,100571.34
2022-11-08T12:04:37.205Z,100571.61
2022-11-08T12:07:11.724Z,100569.19
2022-11-08T12:09:54.448Z,100574.73
2022-11-08T12:12:49.598Z,100575.80
2022-11-08T12:15:26.639Z,100569.78
2022-11-08T12:18:37.009Z,100568.03
2022-11-08T12:21:12.047Z,100577.80
2022-11-08T12:24:01.143Z,100565.70
2022-11-08T12:26:40.031Z,100560.66
2022-11-08T12:29:22.621Z,100562.66
2022-11-08T12:32:21.118Z,100557.55
2022-11-08T12:35:08.243Z,100560.32
2022-11-08T12:37:50.757Z,100567.45
2022-11-08T12:40:27.323Z,100561.49
2022-11-08T12:43:08.549Z,100560.77
2022-11-08T12:45:55.574Z,100550.39
2022-11-08T12:48:40.147Z,100552.34
2022-11-08T12:51:22.601Z,100554.23
2022-11-08T12:54:08.486Z,100543.92
2022-11-08T12:56:43.062Z,100553.77
2022-11-08T12:59:20.305Z,100553.05
2022-11-08T13:01:49.944Z,100546.32
2022-11-08T13:04:38.696Z,100560.55
2022-11-08T13:07:24.919Z,100553.71
2022-11-08T13:10:00.455Z,100552.12
2022-11-08T13:12:40.886Z,100546.95
2022-11-08T13:15:18.661Z,100547.95
2022-11-08T13:18:23.618Z,100543.73
2022-11-08T13:20:55.302Z,100536.88
2022-11-08T13:23:30.501Z,100535.27
2022-11-08T13:26:19.989Z,100539.83
2022-11-08T13:28:49.936Z,100538.23
2022-11-08T13:31:36.910Z,100533.13
2022-11-08T13:34:32.348Z,100534.16
2022-11-08T13:37:17.336Z,100541.30
2022-11-08T13:40:00.427Z,100532.73
2022-11-08T13:42:37.909Z,100536.33
2022-11-08T13:45:25.748Z,100522.48
2022-11-08T13:47:58.364Z,100528.75
2022-11-08T13:50:54.710Z,100527.14
2022-11-08T13:53:57.338Z,100524.70
2022-11-08T13:56:48.920Z,100530.07
2022-11-08T13:59:55.007Z,100530.23
2022-11-08T14:02:45.048Z,100526.01
2022-11-08T14:05:24.777Z,100529.64
2022-11-08T14:08:18.850Z,100540.26
2022-11-08T14:11:22.310Z,100535.13
2022-11-08T14:14:05.476Z,100537.92
2022-11-08T14:16:47.281Z,100541.53
2022-11-08T14:19:22.532Z,100529.40
2022-11-08T14:21:59.818Z,100530.41
2022-11-08T14:24:31.286Z,100532.25
2022-11-08T14:27:00.554Z,100526.28
2022-11-08T14:29:29.817Z,100533.41
2022-11-08T14:32:07.275Z,100533.58
2022-11-08T14:34:40.025Z,100535.46
2022-11-08T14:37:17.130Z,100539.16
2022-11-08T14:39:47.879Z,100541.98
2022-11-08T14:42:23.082Z,100543.87
2022-11-08T14:44:58.409Z,100541.42
2022-11-08T14:47:32.234Z,100538.12
2022-11-08T14:50:01.123Z,100536.53
2022-11-08T14:52:31.592Z,100543.72
2022-11-08T14:55:04.972Z,100549.09
2022-11-08T14:57:37.919Z,100553.65
2022-11-08T15:00:16.312Z,100549.43
2022-11-08T15:02:49.148Z,100550.45
2022-11-08T15:05:42.406Z,100547.99
2022-11-08T15:08:22.740Z,100544.69
2022-11-08T15:10:59.137Z,100539.66
2022-11-08T15:13:34.484Z,100535.46
2022-11-08T15:16:06.942Z,100541.75
2022-11-08T15:18:41.387Z,100540.23
2022-11-08T15:21:26.986Z,100540.52
2022-11-08T15:24:11.303Z,100551.19
2022-11-08T15:26:41.113Z,100543.61
2022-11-08T15:29:18.944Z,100546.38
2022-11-08T15:31:56.980Z,100543.02
2022-11-08T15:34:45.155Z,100543.97
2022-11-08T15:37:21.741Z,100536.22
2022-11-08T15:39:53.311Z,100538.89
2022-11-08T15:42:22.480Z,100529.39
2022-11-08T15:45:04.702Z,100533.80
2022-11-08T15:47:39.153Z,100541.65
2022-11-08T15:50:17.629Z,100536.55
2022-11-08T15:52:51.714Z,100535.74
2022-11-08T15:55:22.327Z,100535.82
2022-11-08T15:57:55.812Z,100535.92
2022-11-08T16:00:25.983Z,100536.81
2022-11-08T16:02:55.359Z,100539.48
2022-11-08T16:05:25.739Z,100538.63
2022-11-08T16:07:55.221Z,100530.86
2022-11-08T16:10:29.605Z,100537.83
2022-11-08T16:13:06.289Z,100536.99
2022-11-08T16:15:38.793Z,100537.05
2022-11-08T16:18:10.267Z,100537.07
2022-11-08T16:20:39.259Z,100538.83
2022-11-08T16:23:09.728Z,100537.12
2022-11-08T16:25:43.173Z,100538.84
2022-11-08T16:28:20.953Z,100541.47
2022-11-08T16:30:52.223Z,100545.85
2022-11-08T16:33:23.363Z,100535.46
2022-11-08T16:35:55.652Z,100540.69
2022-11-08T16:38:27.582Z,100543.27
2022-11-08T16:40:57.128Z,100545.89
2022-11-08T16:43:25.671Z,100545.05
2022-11-08T16:46:10.717Z,100539.86
2022-11-08T16:51:24.684Z,100544.20
2022-11-08T16:53:56.830Z,100550.27
2022-11-08T16:56:25.467Z,100541.61
2022-11-08T16:58:54.145Z,100540.77
2022-11-08T17:01:30.611Z,100548.56
2022-11-08T17:04:06.506Z,100544.24
2022-11-08T17:06:35.270Z,100536.45
2022-11-08T17:09:04.015Z,100539.05
2022-11-08T17:11:34.442Z,100535.59
2022-11-08T17:14:06.034Z,100541.67
2022-11-08T17:16:40.398Z,100541.66
2022-11-08T17:19:08.976Z,100543.42
2022-11-08T17:21:45.744Z,100539.95
2022-11-08T17:24:21.657Z,100539.95
2022-11-08T17:26:53.498Z,100539.96
2022-11-08T17:29:24.646Z,100541.66
2022-11-08T17:31:56.674Z,100541.67
2022-11-08T17:34:26.773Z,100539.08
2022-11-08T17:36:55.542Z,100544.27
2022-11-08T17:39:23.980Z,100538.22
2022-11-08T17:41:54.801Z,100536.48
2022-11-08T17:44:23.404Z,100544.26
2022-11-08T17:46:54.128Z,100542.52
2022-11-08T17:49:22.749Z,100540.80
2022-11-08T17:51:54.159Z,100549.45
2022-11-08T17:54:22.709Z,100546.84
2022-11-08T17:56:55.011Z,100549.44
2022-11-08T17:59:23.716Z,100546.86
2022-11-08T18:01:55.015Z,100546.84
2022-11-08T18:04:23.597Z,100541.66
2022-11-08T18:06:54.908Z,100552.02
2022-11-08T18:09:23.930Z,100545.09
2022-11-08T18:11:53.659Z,100549.41
2022-11-08T18:14:28.239Z,100550.28
2022-11-08T18:16:59.221Z,100545.06
2022-11-08T18:19:28.179Z,100556.33
2022-11-08T18:21:56.682Z,100555.45
2022-11-08T18:24:25.211Z,100551.11
2022-11-08T18:26:53.912Z,100551.12
2022-11-08T18:29:23.294Z,100547.65
2022-11-08T18:32:01.298Z,100546.78
2022-11-08T18:34:34.040Z,100547.65
2022-11-08T18:37:02.663Z,100549.37
2022-11-08T18:39:33.974Z,100545.04
2022-11-08T18:42:04.515Z,100543.30
2022-11-08T18:44:33.834Z,100543.28
2022-11-08T18:47:04.912Z,100546.77
2022-11-08T18:49:33.589Z,100536.38
2022-11-08T18:52:03.788Z,100534.64
2022-11-08T18:54:33.343Z,100538.09
2022-11-08T18:57:19.947Z,100528.59
2022-11-08T18:59:49.167Z,100532.05
2022-11-08T19:02:18.461Z,100529.45
2022-11-08T19:05:23.614Z,100537.24
2022-11-08T19:08:09.560Z,100538.96
2022-11-08T19:10:54.318Z,100541.55
2022-11-08T19:13:29.585Z,100546.72
2022-11-08T19:16:13.821Z,100547.58
2022-11-08T19:18:57.731Z,100544.11
2022-11-08T19:21:27.929Z,100554.50
2022-11-08T19:23:59.147Z,100556.22
2022-11-08T19:26:29.250Z,100555.36
2022-11-08T19:28:58.245Z,100548.43
2022-11-08T19:31:30.048Z,100549.31
2022-11-08T19:34:08.757Z,100559.67
2022-11-08T19:36:43.009Z,100564.00
2022-11-08T19:39:13.274Z,100561.38
2022-11-08T19:42:11.843Z,100560.53
2022-11-08T19:44:40.494Z,100563.98
2022-11-08T19:47:09.481Z,100563.13
2022-11-08T19:49:39.339Z,100566.59
2022-11-08T19:52:43.411Z,100563.11
2022-11-08T19:55:12.313Z,100565.68
2022-11-08T19:57:41.446Z,100569.99
2022-11-08T20:00:14.935Z,100566.55
2022-11-08T20:02:43.983Z,100565.67
2022-11-08T20:05:12.877Z,100569.98
2022-11-08T20:07:45.358Z,100570.83
2022-11-08T20:10:14.899Z,100568.22
2022-11-08T20:12:43.924Z,100573.41
2022-11-08T20:15:13.031Z,100574.26
2022-11-08T20:17:42.073Z,100569.08
2022-11-08T20:20:13.596Z,100573.41
2022-11-08T20:22:47.837Z,100560.44
2022-11-08T20:25:16.969Z,100574.23
2022-11-08T20:27:45.569Z,100563.86
2022-11-08T20:30:14.634Z,100565.59
2022-11-08T20:32:46.019Z,100555.23
2022-11-08T20:35:19.220Z,100548.30
2022-11-08T20:37:55.926Z,100553.48
2022-11-08T20:40:24.423Z,100548.30
2022-11-08T20:42:54.098Z,100557.80
2022-11-08T20:45:22.707Z,100549.14
2022-11-08T20:47:52.477Z,100550.00
2022-11-08T20:50:21.051Z,100550.00
2022-11-08T20:52:49.692Z,100550.83
2022-11-08T20:55:20.302Z,100559.46
2022-11-08T20:57:49.700Z,100556.87
2022-11-08T21:00:32.917Z,100554.28
2022-11-08T21:03:09.572Z,100550.80
2022-11-08T21:05:40.779Z,100549.95
2022-11-08T21:11:05.115Z,100549.97
2022-11-08T21:13:38.694Z,100550.83
2022-11-08T21:16:28.840Z,100548.21
2022-11-08T21:19:06.513Z,100543.00
2022-11-08T21:21:39.167Z,100540.38
2022-11-08T21:24:09.651Z,100553.34
2022-11-08T21:26:40.077Z,100551.61
2022-11-08T21:29:11.539Z,100542.09
2022-11-08T21:31:43.313Z,100540.33
2022-11-08T21:34:12.330Z,100544.63
2022-11-08T21:36:41.174Z,100552.38
2022-11-08T21:39:11.228Z,100543.75
2022-11-08T21:41:42.548Z,100547.17
2022-11-08T21:44:11.512Z,100541.13
2022-11-08T21:46:43.399Z,100549.73
2022-11-08T21:49:13.404Z,100546.25
2022-11-08T21:51:42.184Z,100537.63
2022-11-08T21:54:12.370Z,100539.30
2022-11-08T21:56:42.533Z,100537.56
2022-11-08T21:59:12.088Z,100541.83
2022-11-08T22:01:41.300Z,100544.42
2022-11-08T22:04:10.356Z,100545.28
2022-11-08T22:06:46.395Z,100546.09
2022-11-08T22:09:16.427Z,100545.21
2022-11-08T22:11:45.217Z,100540.88
2022-11-08T22:14:14.310Z,100546.91
2022-11-08T22:16:43.251Z,100552.09
2022-11-08T22:19:12.702Z,100544.29
2022-11-08T22:21:43.746Z,100539.92
2022-11-08T22:24:14.689Z,100548.55
2022-11-08T22:26:43.848Z,100541.59
2022-11-08T22:29:13.346Z,100545.92
2022-11-08T22:31:42.516Z,100541.59
2022-11-08T22:34:12.108Z,100542.41
2022-11-08T22:36:45.901Z,100549.33
2022-11-08T22:39:19.930Z,100552.80
2022-11-08T22:41:53.003Z,100551.09
2022-11-08T22:44:22.308Z,100563.16
2022-11-08T22:46:53.397Z,100553.66
2022-11-08T22:49:22.264Z,100556.24
2022-11-08T22:51:53.998Z,100557.12
2022-11-08T22:54:22.920Z,100551.92
2022-11-08T22:56:54.452Z,100551.06
2022-11-08T22:59:23.949Z,100554.50
2022-11-08T23:01:54.997Z,100545.00
2022-11-08T23:04:25.551Z,100548.44
2022-11-08T23:06:54.468Z,100544.11
2022-11-08T23:09:23.333Z,100542.36
2022-11-08T23:12:13.804Z,100546.66
2022-11-08T23:15:02.484Z,100538.84
2022-11-08T23:17:31.441Z,100538.81
2022-11-08T23:20:19.946Z,100534.48
2022-11-08T23:23:07.434Z,100539.66
2022-11-08T23:25:36.367Z,100534.45
2022-11-08T23:28:35.396Z,100537.88
2022-11-08T23:31:22.735Z,100539.58
2022-11-08T23:33:53.987Z,100536.09
2022-11-08T23:36:22.747Z,100531.77
2022-11-08T23:38:53.651Z,100536.05
2022-11-08T23:41:41.044Z,100534.28
2022-11-08T23:44:27.278Z,100531.64
2022-11-08T23:46:58.071Z,100537.66
2022-11-08T23:49:26.867Z,100537.61
2022-11-08T23:51:55.625Z,100531.55
2022-11-08T23:54:24.141Z,100533.23
2022-11-08T23:56:54.220Z,100539.26
2022-11-08T23:59:22.683Z,100530.61
